sensor_id;sensor_type;location;lat;lon;timestamp;P1;durP1;ratioP1;P2;durP2;ratioP2
7497;SDS011;3790;48.806;9.140;2023-06-04T00:01:52;5.60;;;2.45;;
7497;SDS011;3790;48.806;9.140;2023-06-04T00:06:53;5.43;;;3.10;;
7497;SDS011;3790;48.806;9.140;2023-06-04T00:11:54;4.60;;;2.97;;
7497;SDS011;3790;48.806;9.140;2023-06-04T00:16:55;4.00;;;2.63;;
7497;SDS011;3790;48.806;9.140;2023-06-04T00:21:55;5.30;;;3.17;;
7497;SDS011;3790;48.806;9.140;2023-06-04T00:26:56;5.22;;;3.17;;
7497;SDS011;3790;48.806;9.140;2023-06-04T00:31:56;4.82;;;3.03;;
7497;SDS011;3790;48.806;9.140;2023-06-04T00:36:57;4.63;;;3.30;;
7497;SDS011;3790;48.806;9.140;2023-06-04T00:41:57;4.45;;;2.70;;
7497;SDS011;3790;48.806;9.140;2023-06-04T00:46:58;3.42;;;2.47;;
7497;SDS011;3790;48.806;9.140;2023-06-04T00:51:59;4.68;;;2.83;;
7497;SDS011;3790;48.806;9.140;2023-06-04T00:56:59;4.30;;;2.72;;
7497;SDS011;3790;48.806;9.140;2023-06-04T01:02:04;4.57;;;3.10;;
7497;SDS011;3790;48.806;9.140;2023-06-04T01:07:09;5.60;;;3.38;;
7497;SDS011;3790;48.806;9.140;2023-06-04T01:12:10;4.90;;;2.90;;
7497;SDS011;3790;48.806;9.140;2023-06-04T01:17:32;5.03;;;2.80;;
7497;SDS011;3790;48.806;9.140;2023-06-04T01:27:54;7.82;;;2.63;;
7497;SDS011;3790;48.806;9.140;2023-06-04T01:32:57;7.57;;;3.15;;
7497;SDS011;3790;48.806;9.140;2023-06-04T01:37:58;5.25;;;3.53;;
7497;SDS011;3790;48.806;9.140;2023-06-04T01:42:58;3.70;;;2.45;;
7497;SDS011;3790;48.806;9.140;2023-06-04T01:48:01;4.43;;;2.25;;
7497;SDS011;3790;48.806;9.140;2023-06-04T01:53:02;6.15;;;2.45;;
7497;SDS011;3790;48.806;9.140;2023-06-04T01:58:03;4.30;;;2.25;;
7497;SDS011;3790;48.806;9.140;2023-06-04T02:03:04;7.53;;;3.28;;
7497;SDS011;3790;48.806;9.140;2023-06-04T02:08:04;6.63;;;2.90;;
7497;SDS011;3790;48.806;9.140;2023-06-04T02:13:05;5.10;;;2.95;;
7497;SDS011;3790;48.806;9.140;2023-06-04T02:23:18;4.60;;;2.55;;
7497;SDS011;3790;48.806;9.140;2023-06-04T02:28:20;4.78;;;2.47;;
7497;SDS011;3790;48.806;9.140;2023-06-04T02:33:21;4.93;;;2.33;;
7497;SDS011;3790;48.806;9.140;2023-06-04T02:38:21;7.28;;;2.63;;
7497;SDS011;3790;48.806;9.140;2023-06-04T02:43:22;7.20;;;2.55;;
7497;SDS011;3790;48.806;9.140;2023-06-04T02:48:22;3.95;;;1.98;;
7497;SDS011;3790;48.806;9.140;2023-06-04T02:53:23;2.80;;;1.83;;
7497;SDS011;3790;48.806;9.140;2023-06-04T02:58:24;6.10;;;2.53;;
7497;SDS011;3790;48.806;9.140;2023-06-04T03:03:25;4.50;;;2.55;;
7497;SDS011;3790;48.806;9.140;2023-06-04T03:08:26;4.90;;;2.33;;
7497;SDS011;3790;48.806;9.140;2023-06-04T03:13:27;3.87;;;2.17;;
7497;SDS011;3790;48.806;9.140;2023-06-04T03:18:28;5.22;;;2.38;;
7497;SDS011;3790;48.806;9.140;2023-06-04T03:23:29;4.68;;;2.20;;
7497;SDS011;3790;48.806;9.140;2023-06-04T03:28:29;5.23;;;2.57;;
7497;SDS011;3790;48.806;9.140;2023-06-04T03:33:31;4.27;;;2.47;;
7497;SDS011;3790;48.806;9.140;2023-06-04T03:38:31;4.63;;;2.20;;
7497;SDS011;3790;48.806;9.140;2023-06-04T03:43:32;4.93;;;2.43;;
7497;SDS011;3790;48.806;9.140;2023-06-04T03:48:32;5.87;;;2.67;;
7497;SDS011;3790;48.806;9.140;2023-06-04T03:53:33;3.33;;;2.37;;
7497;SDS011;3790;48.806;9.140;2023-06-04T03:58:34;3.43;;;2.40;;
7497;SDS011;3790;48.806;9.140;2023-06-04T04:03:36;3.63;;;2.50;;
7497;SDS011;3790;48.806;9.140;2023-06-04T04:08:37;4.38;;;2.58;;
7497;SDS011;3790;48.806;9.140;2023-06-04T04:13:42;9.70;;;2.40;;
7497;SDS011;3790;48.806;9.140;2023-06-04T04:18:44;4.20;;;2.47;;
7497;SDS011;3790;48.806;9.140;2023-06-04T04:23:45;4.60;;;2.45;;
7497;SDS011;3790;48.806;9.140;2023-06-04T04:28:46;4.35;;;2.83;;
7497;SDS011;3790;48.806;9.140;2023-06-04T04:33:46;5.18;;;2.85;;
7497;SDS011;3790;48.806;9.140;2023-06-04T04:38:47;5.03;;;2.88;;
7497;SDS011;3790;48.806;9.140;2023-06-04T04:43:54;5.22;;;2.60;;
7497;SDS011;3790;48.806;9.140;2023-06-04T04:49:02;3.40;;;2.10;;
7497;SDS011;3790;48.806;9.140;2023-06-04T04:54:02;5.30;;;2.65;;
7497;SDS011;3790;48.806;9.140;2023-06-04T04:59:05;3.42;;;2.08;;
7497;SDS011;3790;48.806;9.140;2023-06-04T05:04:06;2.97;;;1.95;;
7497;SDS011;3790;48.806;9.140;2023-06-04T05:09:06;4.03;;;2.20;;
7497;SDS011;3790;48.806;9.140;2023-06-04T05:14:07;4.90;;;2.03;;
7497;SDS011;3790;48.806;9.140;2023-06-04T05:19:08;3.58;;;1.80;;
7497;SDS011;3790;48.806;9.140;2023-06-04T05:24:10;3.65;;;2.00;;
7497;SDS011;3790;48.806;9.140;2023-06-04T05:29:11;4.43;;;2.25;;
7497;SDS011;3790;48.806;9.140;2023-06-04T05:34:11;3.25;;;1.60;;
7497;SDS011;3790;48.806;9.140;2023-06-04T05:39:16;3.83;;;2.05;;
7497;SDS011;3790;48.806;9.140;2023-06-04T05:44:18;5.88;;;2.65;;
7497;SDS011;3790;48.806;9.140;2023-06-04T05:49:19;5.28;;;2.47;;
7497;SDS011;3790;48.806;9.140;2023-06-04T05:54:20;2.47;;;1.67;;
7497;SDS011;3790;48.806;9.140;2023-06-04T05:59:20;6.03;;;1.90;;
7497;SDS011;3790;48.806;9.140;2023-06-04T06:04:21;4.05;;;1.95;;
7497;SDS011;3790;48.806;9.140;2023-06-04T06:09:21;4.18;;;2.33;;
7497;SDS011;3790;48.806;9.140;2023-06-04T06:14:22;2.92;;;1.77;;
7497;SDS011;3790;48.806;9.140;2023-06-04T06:19:23;3.05;;;1.83;;
7497;SDS011;3790;48.806;9.140;2023-06-04T06:24:24;3.60;;;1.90;;
7497;SDS011;3790;48.806;9.140;2023-06-04T06:29:25;2.95;;;1.58;;
7497;SDS011;3790;48.806;9.140;2023-06-04T06:34:25;3.83;;;1.63;;
7497;SDS011;3790;48.806;9.140;2023-06-04T06:39:26;3.50;;;1.33;;
7497;SDS011;3790;48.806;9.140;2023-06-04T06:44:26;2.10;;;1.20;;
7497;SDS011;3790;48.806;9.140;2023-06-04T06:49:27;2.78;;;1.27;;
7497;SDS011;3790;48.806;9.140;2023-06-04T06:54:27;2.47;;;1.40;;
7497;SDS011;3790;48.806;9.140;2023-06-04T06:59:28;2.78;;;1.23;;
7497;SDS011;3790;48.806;9.140;2023-06-04T07:04:28;3.65;;;1.23;;
7497;SDS011;3790;48.806;9.140;2023-06-04T07:09:31;3.25;;;1.25;;
7497;SDS011;3790;48.806;9.140;2023-06-04T07:14:32;2.45;;;1.33;;
7497;SDS011;3790;48.806;9.140;2023-06-04T07:19:32;3.58;;;1.30;;
7497;SDS011;3790;48.806;9.140;2023-06-04T07:24:33;2.75;;;1.33;;
7497;SDS011;3790;48.806;9.140;2023-06-04T07:29:33;3.15;;;1.65;;
7497;SDS011;3790;48.806;9.140;2023-06-04T07:34:34;2.00;;;1.33;;
7497;SDS011;3790;48.806;9.140;2023-06-04T07:39:35;5.05;;;1.30;;
7497;SDS011;3790;48.806;9.140;2023-06-04T07:44:36;3.63;;;1.58;;
7497;SDS011;3790;48.806;9.140;2023-06-04T07:49:38;3.10;;;1.50;;
7497;SDS011;3790;48.806;9.140;2023-06-04T07:54:38;2.58;;;1.20;;
7497;SDS011;3790;48.806;9.140;2023-06-04T07:59:41;2.78;;;1.33;;
7497;SDS011;3790;48.806;9.140;2023-06-04T08:04:41;5.55;;;1.98;;
7497;SDS011;3790;48.806;9.140;2023-06-04T08:09:42;4.93;;;1.73;;
7497;SDS011;3790;48.806;9.140;2023-06-04T08:14:44;5.75;;;1.60;;
7497;SDS011;3790;48.806;9.140;2023-06-04T08:19:45;4.38;;;1.77;;
7497;SDS011;3790;48.806;9.140;2023-06-04T08:24:45;2.75;;;1.60;;
7497;SDS011;3790;48.806;9.140;2023-06-04T08:29:46;3.95;;;1.58;;
7497;SDS011;3790;48.806;9.140;2023-06-04T08:34:47;2.22;;;1.30;;
7497;SDS011;3790;48.806;9.140;2023-06-04T08:39:48;5.20;;;1.60;;
7497;SDS011;3790;48.806;9.140;2023-06-04T08:44:52;3.28;;;1.27;;
7497;SDS011;3790;48.806;9.140;2023-06-04T08:49:58;4.53;;;1.40;;
7497;SDS011;3790;48.806;9.140;2023-06-04T08:55:00;4.20;;;1.58;;
7497;SDS011;3790;48.806;9.140;2023-06-04T09:00:02;2.50;;;1.25;;
7497;SDS011;3790;48.806;9.140;2023-06-04T09:05:07;3.33;;;1.40;;
7497;SDS011;3790;48.806;9.140;2023-06-04T09:10:09;2.38;;;1.40;;
7497;SDS011;3790;48.806;9.140;2023-06-04T09:15:12;2.40;;;1.45;;
7497;SDS011;3790;48.806;9.140;2023-06-04T09:20:20;3.08;;;1.70;;
7497;SDS011;3790;48.806;9.140;2023-06-04T09:25:22;3.60;;;1.42;;
7497;SDS011;3790;48.806;9.140;2023-06-04T09:30:26;5.15;;;1.50;;
7497;SDS011;3790;48.806;9.140;2023-06-04T09:35:27;3.33;;;1.80;;
7497;SDS011;3790;48.806;9.140;2023-06-04T09:40:35;3.08;;;1.52;;
7497;SDS011;3790;48.806;9.140;2023-06-04T09:45:37;3.00;;;1.50;;
7497;SDS011;3790;48.806;9.140;2023-06-04T09:50:37;3.78;;;1.65;;
7497;SDS011;3790;48.806;9.140;2023-06-04T09:55:39;3.35;;;1.67;;
7497;SDS011;3790;48.806;9.140;2023-06-04T10:00:40;2.50;;;1.38;;
7497;SDS011;3790;48.806;9.140;2023-06-04T10:05:41;3.00;;;1.60;;
7497;SDS011;3790;48.806;9.140;2023-06-04T10:10:42;3.60;;;1.42;;
7497;SDS011;3790;48.806;9.140;2023-06-04T10:15:46;2.80;;;1.65;;
7497;SDS011;3790;48.806;9.140;2023-06-04T10:20:48;2.45;;;1.40;;
7497;SDS011;3790;48.806;9.140;2023-06-04T10:25:50;3.72;;;1.52;;
7497;SDS011;3790;48.806;9.140;2023-06-04T10:30:52;2.55;;;1.48;;
7497;SDS011;3790;48.806;9.140;2023-06-04T10:35:53;2.60;;;1.50;;
7497;SDS011;3790;48.806;9.140;2023-06-04T10:40:57;3.72;;;1.50;;
7497;SDS011;3790;48.806;9.140;2023-06-04T10:45:58;4.20;;;1.85;;
7497;SDS011;3790;48.806;9.140;2023-06-04T10:51:10;4.35;;;1.70;;
7497;SDS011;3790;48.806;9.140;2023-06-04T10:56:11;3.05;;;1.88;;
7497;SDS011;3790;48.806;9.140;2023-06-04T11:01:11;2.70;;;1.52;;
7497;SDS011;3790;48.806;9.140;2023-06-04T11:06:23;2.58;;;1.65;;
7497;SDS011;3790;48.806;9.140;2023-06-04T11:11:27;3.00;;;1.60;;
7497;SDS011;3790;48.806;9.140;2023-06-04T11:16:31;6.30;;;2.10;;
7497;SDS011;3790;48.806;9.140;2023-06-04T11:21:35;5.25;;;1.98;;
7497;SDS011;3790;48.806;9.140;2023-06-04T11:26:38;3.58;;;1.33;;
7497;SDS011;3790;48.806;9.140;2023-06-04T11:31:46;3.70;;;1.85;;
7497;SDS011;3790;48.806;9.140;2023-06-04T11:36:47;4.80;;;2.25;;
7497;SDS011;3790;48.806;9.140;2023-06-04T11:41:52;4.03;;;1.88;;
7497;SDS011;3790;48.806;9.140;2023-06-04T11:46:54;5.05;;;1.77;;
7497;SDS011;3790;48.806;9.140;2023-06-04T11:51:54;5.18;;;1.80;;
7497;SDS011;3790;48.806;9.140;2023-06-04T11:56:55;4.07;;;1.80;;
7497;SDS011;3790;48.806;9.140;2023-06-04T12:01:56;3.22;;;1.92;;
7497;SDS011;3790;48.806;9.140;2023-06-04T12:06:57;3.58;;;2.00;;
7497;SDS011;3790;48.806;9.140;2023-06-04T12:12:05;3.80;;;2.17;;
7497;SDS011;3790;48.806;9.140;2023-06-04T12:17:07;3.33;;;1.95;;
7497;SDS011;3790;48.806;9.140;2023-06-04T12:22:08;3.10;;;1.70;;
7497;SDS011;3790;48.806;9.140;2023-06-04T12:27:09;3.78;;;2.13;;
7497;SDS011;3790;48.806;9.140;2023-06-04T12:32:10;3.30;;;2.00;;
7497;SDS011;3790;48.806;9.140;2023-06-04T12:37:11;5.05;;;2.35;;
7497;SDS011;3790;48.806;9.140;2023-06-04T12:42:12;5.63;;;1.83;;
7497;SDS011;3790;48.806;9.140;2023-06-04T12:47:12;4.38;;;1.80;;
7497;SDS011;3790;48.806;9.140;2023-06-04T12:52:13;3.75;;;1.75;;
7497;SDS011;3790;48.806;9.140;2023-06-04T12:57:14;2.90;;;1.80;;
7497;SDS011;3790;48.806;9.140;2023-06-04T13:02:14;3.15;;;1.92;;
7497;SDS011;3790;48.806;9.140;2023-06-04T13:07:15;2.50;;;1.60;;
7497;SDS011;3790;48.806;9.140;2023-06-04T13:12:18;3.17;;;1.63;;
7497;SDS011;3790;48.806;9.140;2023-06-04T13:17:18;3.67;;;1.90;;
7497;SDS011;3790;48.806;9.140;2023-06-04T13:22:19;7.57;;;2.17;;
7497;SDS011;3790;48.806;9.140;2023-06-04T13:27:19;3.53;;;2.10;;
7497;SDS011;3790;48.806;9.140;2023-06-04T13:32:20;4.28;;;2.30;;
7497;SDS011;3790;48.806;9.140;2023-06-04T13:37:20;3.47;;;1.90;;
7497;SDS011;3790;48.806;9.140;2023-06-04T13:42:21;2.78;;;1.70;;
7497;SDS011;3790;48.806;9.140;2023-06-04T13:47:21;2.95;;;2.03;;
7497;SDS011;3790;48.806;9.140;2023-06-04T13:52:22;4.47;;;2.13;;
7497;SDS011;3790;48.806;9.140;2023-06-04T13:57:24;6.00;;;1.63;;
7497;SDS011;3790;48.806;9.140;2023-06-04T14:02:25;4.22;;;1.73;;
7497;SDS011;3790;48.806;9.140;2023-06-04T14:07:26;3.50;;;2.10;;
7497;SDS011;3790;48.806;9.140;2023-06-04T14:12:29;5.45;;;2.10;;
7497;SDS011;3790;48.806;9.140;2023-06-04T14:17:30;3.15;;;1.65;;
7497;SDS011;3790;48.806;9.140;2023-06-04T14:22:31;3.70;;;1.90;;
7497;SDS011;3790;48.806;9.140;2023-06-04T14:27:31;2.72;;;1.80;;
7497;SDS011;3790;48.806;9.140;2023-06-04T14:32:33;4.47;;;1.98;;
7497;SDS011;3790;48.806;9.140;2023-06-04T14:37:33;3.13;;;1.85;;
7497;SDS011;3790;48.806;9.140;2023-06-04T14:42:34;4.43;;;1.80;;
7497;SDS011;3790;48.806;9.140;2023-06-04T14:47:35;3.45;;;1.30;;
7497;SDS011;3790;48.806;9.140;2023-06-04T14:52:35;5.88;;;1.55;;
7497;SDS011;3790;48.806;9.140;2023-06-04T14:57:36;2.00;;;1.40;;
7497;SDS011;3790;48.806;9.140;2023-06-04T15:02:36;3.58;;;1.80;;
7497;SDS011;3790;48.806;9.140;2023-06-04T15:07:37;3.53;;;1.70;;
7497;SDS011;3790;48.806;9.140;2023-06-04T15:12:37;3.97;;;1.52;;
7497;SDS011;3790;48.806;9.140;2023-06-04T15:17:39;2.50;;;1.30;;
7497;SDS011;3790;48.806;9.140;2023-06-04T15:22:39;2.65;;;1.40;;
7497;SDS011;3790;48.806;9.140;2023-06-04T15:27:40;3.03;;;1.70;;
7497;SDS011;3790;48.806;9.140;2023-06-04T15:32:40;2.92;;;1.40;;
7497;SDS011;3790;48.806;9.140;2023-06-04T15:37:41;2.67;;;1.50;;
7497;SDS011;3790;48.806;9.140;2023-06-04T15:42:42;3.05;;;1.52;;
7497;SDS011;3790;48.806;9.140;2023-06-04T15:47:42;2.50;;;1.73;;
7497;SDS011;3790;48.806;9.140;2023-06-04T15:52:43;5.10;;;2.50;;
7497;SDS011;3790;48.806;9.140;2023-06-04T15:57:44;3.28;;;2.03;;
7497;SDS011;3790;48.806;9.140;2023-06-04T16:02:45;2.72;;;1.63;;
7497;SDS011;3790;48.806;9.140;2023-06-04T16:07:45;3.00;;;1.90;;
7497;SDS011;3790;48.806;9.140;2023-06-04T16:12:46;3.13;;;1.83;;
7497;SDS011;3790;48.806;9.140;2023-06-04T16:17:47;9.82;;;1.83;;
7497;SDS011;3790;48.806;9.140;2023-06-04T16:22:49;2.83;;;1.88;;
7497;SDS011;3790;48.806;9.140;2023-06-04T16:27:50;3.63;;;1.63;;
7497;SDS011;3790;48.806;9.140;2023-06-04T16:32:51;4.43;;;1.52;;
7497;SDS011;3790;48.806;9.140;2023-06-04T16:37:51;3.72;;;1.40;;
7497;SDS011;3790;48.806;9.140;2023-06-04T16:42:52;2.42;;;1.42;;
7497;SDS011;3790;48.806;9.140;2023-06-04T16:47:53;3.92;;;1.50;;
7497;SDS011;3790;48.806;9.140;2023-06-04T16:52:53;2.65;;;1.60;;
7497;SDS011;3790;48.806;9.140;2023-06-04T16:57:54;3.38;;;1.75;;
7497;SDS011;3790;48.806;9.140;2023-06-04T17:02:55;5.60;;;1.58;;
7497;SDS011;3790;48.806;9.140;2023-06-04T17:07:56;2.47;;;1.40;;
7497;SDS011;3790;48.806;9.140;2023-06-04T17:12:57;2.60;;;1.30;;
7497;SDS011;3790;48.806;9.140;2023-06-04T17:17:58;3.35;;;1.50;;
7497;SDS011;3790;48.806;9.140;2023-06-04T17:23:02;2.20;;;1.50;;
7497;SDS011;3790;48.806;9.140;2023-06-04T17:28:03;2.50;;;1.40;;
7497;SDS011;3790;48.806;9.140;2023-06-04T17:33:03;3.85;;;1.90;;
7497;SDS011;3790;48.806;9.140;2023-06-04T17:38:04;2.70;;;1.50;;
7497;SDS011;3790;48.806;9.140;2023-06-04T17:43:05;3.78;;;1.50;;
7497;SDS011;3790;48.806;9.140;2023-06-04T17:48:06;4.05;;;1.65;;
7497;SDS011;3790;48.806;9.140;2023-06-04T17:53:06;4.80;;;1.73;;
7497;SDS011;3790;48.806;9.140;2023-06-04T17:58:07;4.75;;;1.88;;
7497;SDS011;3790;48.806;9.140;2023-06-04T18:03:07;3.95;;;1.70;;
7497;SDS011;3790;48.806;9.140;2023-06-04T18:08:11;3.92;;;1.40;;
7497;SDS011;3790;48.806;9.140;2023-06-04T18:13:11;4.85;;;1.50;;
7497;SDS011;3790;48.806;9.140;2023-06-04T18:18:12;4.47;;;1.92;;
7497;SDS011;3790;48.806;9.140;2023-06-04T18:23:14;3.63;;;1.80;;
7497;SDS011;3790;48.806;9.140;2023-06-04T18:28:14;3.08;;;1.20;;
7497;SDS011;3790;48.806;9.140;2023-06-04T18:33:15;2.90;;;1.20;;
7497;SDS011;3790;48.806;9.140;2023-06-04T18:38:16;3.38;;;1.50;;
7497;SDS011;3790;48.806;9.140;2023-06-04T18:43:16;8.70;;;1.38;;
7497;SDS011;3790;48.806;9.140;2023-06-04T18:48:17;4.53;;;1.48;;
7497;SDS011;3790;48.806;9.140;2023-06-04T18:53:17;3.40;;;1.48;;
7497;SDS011;3790;48.806;9.140;2023-06-04T18:58:18;6.22;;;1.75;;
7497;SDS011;3790;48.806;9.140;2023-06-04T19:03:19;5.30;;;1.27;;
7497;SDS011;3790;48.806;9.140;2023-06-04T19:08:20;2.33;;;1.30;;
7497;SDS011;3790;48.806;9.140;2023-06-04T19:13:20;2.33;;;1.27;;
7497;SDS011;3790;48.806;9.140;2023-06-04T19:18:21;6.78;;;1.55;;
7497;SDS011;3790;48.806;9.140;2023-06-04T19:23:21;3.05;;;1.63;;
7497;SDS011;3790;48.806;9.140;2023-06-04T19:28:22;4.03;;;1.30;;
7497;SDS011;3790;48.806;9.140;2023-06-04T19:33:22;3.83;;;1.48;;
7497;SDS011;3790;48.806;9.140;2023-06-04T19:38:23;4.93;;;1.30;;
7497;SDS011;3790;48.806;9.140;2023-06-04T19:43:24;5.57;;;1.33;;
7497;SDS011;3790;48.806;9.140;2023-06-04T19:48:24;2.65;;;1.48;;
7497;SDS011;3790;48.806;9.140;2023-06-04T19:53:25;3.08;;;1.35;;
7497;SDS011;3790;48.806;9.140;2023-06-04T19:58:25;4.22;;;1.48;;
7497;SDS011;3790;48.806;9.140;2023-06-04T20:03:26;2.35;;;1.23;;
7497;SDS011;3790;48.806;9.140;2023-06-04T20:08:30;2.92;;;1.27;;
7497;SDS011;3790;48.806;9.140;2023-06-04T20:13:31;2.83;;;1.58;;
7497;SDS011;3790;48.806;9.140;2023-06-04T20:18:32;2.42;;;1.23;;
7497;SDS011;3790;48.806;9.140;2023-06-04T20:23:33;4.60;;;2.10;;
7497;SDS011;3790;48.806;9.140;2023-06-04T20:28:33;3.60;;;1.50;;
7497;SDS011;3790;48.806;9.140;2023-06-04T20:33:34;3.17;;;0.93;;
7497;SDS011;3790;48.806;9.140;2023-06-04T20:38:34;3.90;;;1.35;;
7497;SDS011;3790;48.806;9.140;2023-06-04T20:43:44;4.70;;;1.50;;
7497;SDS011;3790;48.806;9.140;2023-06-04T20:48:50;2.13;;;1.38;;
7497;SDS011;3790;48.806;9.140;2023-06-04T20:53:50;1.83;;;1.25;;
7497;SDS011;3790;48.806;9.140;2023-06-04T20:58:51;2.50;;;1.38;;
7497;SDS011;3790;48.806;9.140;2023-06-04T21:03:52;1.77;;;1.05;;
7497;SDS011;3790;48.806;9.140;2023-06-04T21:08:52;2.15;;;1.13;;
7497;SDS011;3790;48.806;9.140;2023-06-04T21:13:53;2.30;;;1.10;;
7497;SDS011;3790;48.806;9.140;2023-06-04T21:18:53;2.08;;;1.20;;
7497;SDS011;3790;48.806;9.140;2023-06-04T21:23:54;1.85;;;1.10;;
7497;SDS011;3790;48.806;9.140;2023-06-04T21:28:56;1.80;;;0.95;;
7497;SDS011;3790;48.806;9.140;2023-06-04T21:33:56;2.95;;;1.20;;
7497;SDS011;3790;48.806;9.140;2023-06-04T21:38:57;2.50;;;1.10;;
7497;SDS011;3790;48.806;9.140;2023-06-04T21:43:57;1.88;;;1.10;;
7497;SDS011;3790;48.806;9.140;2023-06-04T21:48:58;2.28;;;1.15;;
7497;SDS011;3790;48.806;9.140;2023-06-04T21:53:58;1.60;;;1.20;;
7497;SDS011;3790;48.806;9.140;2023-06-04T21:58:59;3.72;;;1.23;;
7497;SDS011;3790;48.806;9.140;2023-06-04T22:04:00;2.45;;;1.30;;
7497;SDS011;3790;48.806;9.140;2023-06-04T22:09:00;1.92;;;1.15;;
7497;SDS011;3790;48.806;9.140;2023-06-04T22:14:01;2.42;;;1.13;;
7497;SDS011;3790;48.806;9.140;2023-06-04T22:19:01;2.67;;;1.33;;
7497;SDS011;3790;48.806;9.140;2023-06-04T22:24:02;4.90;;;1.38;;
7497;SDS011;3790;48.806;9.140;2023-06-04T22:29:03;2.25;;;1.13;;
7497;SDS011;3790;48.806;9.140;2023-06-04T22:34:03;2.65;;;1.20;;
7497;SDS011;3790;48.806;9.140;2023-06-04T22:39:04;2.22;;;1.00;;
7497;SDS011;3790;48.806;9.140;2023-06-04T22:44:04;2.38;;;1.02;;
7497;SDS011;3790;48.806;9.140;2023-06-04T22:49:05;2.17;;;1.17;;
7497;SDS011;3790;48.806;9.140;2023-06-04T22:54:06;2.15;;;1.02;;
7497;SDS011;3790;48.806;9.140;2023-06-04T22:59:06;1.83;;;1.20;;
7497;SDS011;3790;48.806;9.140;2023-06-04T23:04:07;3.30;;;1.02;;
7497;SDS011;3790;48.806;9.140;2023-06-04T23:09:07;1.52;;;0.98;;
7497;SDS011;3790;48.806;9.140;2023-06-04T23:14:08;2.90;;;1.23;;
7497;SDS011;3790;48.806;9.140;2023-06-04T23:19:09;2.45;;;1.10;;
7497;SDS011;3790;48.806;9.140;2023-06-04T23:24:10;2.85;;;1.10;;
7497;SDS011;3790;48.806;9.140;2023-06-04T23:29:10;2.08;;;1.20;;
7497;SDS011;3790;48.806;9.140;2023-06-04T23:34:11;3.00;;;1.48;;
7497;SDS011;3790;48.806;9.140;2023-06-04T23:39:11;2.55;;;1.10;;
7497;SDS011;3790;48.806;9.140;2023-06-04T23:44:12;1.55;;;1.00;;
7497;SDS011;3790;48.806;9.140;2023-06-04T23:49:12;2.00;;;1.02;;
7497;SDS011;3790;48.806;9.140;2023-06-04T23:54:14;2.03;;;1.05;;
7497;SDS011;3790;48.806;9.140;2023-06-04T23:59:17;1.80;;;1.05;;
